createdAt,value
2019-02-23T00:01:04.706Z,99.90
2019-02-23T00:04:06.932Z,99.90
2019-02-23T00:07:09.167Z,99.90
2019-02-23T00:10:11.444Z,99.90
2019-02-23T00:13:13.711Z,99.80
2019-02-23T00:16:15.946Z,99.90
2019-02-23T00:19:24.840Z,99.90
2019-02-23T00:22:20.507Z,99.90
2019-02-23T00:25:22.744Z,99.90
2019-02-23T00:28:24.973Z,99.90
2019-02-23T00:31:27.231Z,99.90
2019-02-23T00:34:29.479Z,99.50
2019-02-23T00:37:31.728Z,99.50
2019-02-23T00:40:33.987Z,99.50
2019-02-23T00:43:36.245Z,99.00
2019-02-23T00:46:38.543Z,99.20
2019-02-23T00:49:40.817Z,99.60
2019-02-23T00:52:43.056Z,99.30
2019-02-23T00:55:45.291Z,99.50
2019-02-23T00:58:47.539Z,99.40
2019-02-23T01:01:49.776Z,99.90
2019-02-23T01:04:52.068Z,99.90
2019-02-23T01:07:54.336Z,99.90
2019-02-23T01:10:58.347Z,99.90
2019-02-23T01:13:58.885Z,99.90
2019-02-23T01:17:01.134Z,99.90
2019-02-23T01:20:03.729Z,99.60
2019-02-23T01:23:06.019Z,99.90
2019-02-23T01:26:08.316Z,99.60
2019-02-23T01:29:10.584Z,99.10
2019-02-23T01:32:12.967Z,99.10
2019-02-23T01:35:15.240Z,99.00
2019-02-23T01:38:17.499Z,98.60
2019-02-23T01:41:19.786Z,99.00
2019-02-23T01:44:22.031Z,98.80
2019-02-23T01:47:24.320Z,98.80
2019-02-23T01:50:26.603Z,99.10
2019-02-23T01:53:28.846Z,98.80
2019-02-23T01:56:31.103Z,99.10
2019-02-23T01:59:33.392Z,99.10
2019-02-23T02:02:35.647Z,99.80
2019-02-23T02:05:37.971Z,99.60
2019-02-23T02:08:40.248Z,99.70
2019-02-23T02:11:42.540Z,99.20
2019-02-23T02:14:44.820Z,99.00
2019-02-23T02:17:47.093Z,99.40
2019-02-23T02:20:49.368Z,99.00
2019-02-23T02:23:51.596Z,98.60
2019-02-23T02:26:53.815Z,99.20
2019-02-23T02:29:56.084Z,98.90
2019-02-23T02:32:58.377Z,98.80
2019-02-23T02:36:00.680Z,99.00
2019-02-23T02:39:04.071Z,98.60
2019-02-23T02:42:06.319Z,98.90
2019-02-23T02:45:09.388Z,99.00
2019-02-23T02:48:11.607Z,98.70
2019-02-23T02:51:13.850Z,98.70
2019-02-23T02:54:16.080Z,98.90
2019-02-23T02:57:18.296Z,99.00
2019-02-23T03:00:20.519Z,99.30
2019-02-23T03:03:22.748Z,99.30
2019-02-23T03:06:25.059Z,99.30
2019-02-23T03:09:27.296Z,99.70
2019-02-23T03:12:29.562Z,99.80
2019-02-23T03:15:31.847Z,99.40
2019-02-23T03:18:34.115Z,99.50
2019-02-23T03:21:36.403Z,99.70
2019-02-23T03:24:38.647Z,99.70
2019-02-23T03:27:41.004Z,98.90
2019-02-23T03:30:43.278Z,99.40
2019-02-23T03:33:45.522Z,99.30
2019-02-23T03:36:47.753Z,99.70
2019-02-23T03:39:50.028Z,99.70
2019-02-23T03:42:52.335Z,99.80
2019-02-23T03:45:54.569Z,99.90
2019-02-23T03:48:56.795Z,99.90
2019-02-23T03:51:59.917Z,99.60
2019-02-23T03:55:02.219Z,99.60
2019-02-23T03:58:04.503Z,99.00
2019-02-23T04:01:06.739Z,98.70
2019-02-23T04:04:08.971Z,98.70
2019-02-23T04:07:11.252Z,98.40
2019-02-23T04:10:13.519Z,98.40
2019-02-23T04:13:15.794Z,98.50
2019-02-23T04:16:18.127Z,97.20
2019-02-23T04:19:20.363Z,97.50
2019-02-23T04:22:22.643Z,97.70
2019-02-23T04:25:24.922Z,97.50
2019-02-23T04:28:27.135Z,96.60
2019-02-23T04:31:29.394Z,96.40
2019-02-23T04:34:31.625Z,94.70
2019-02-23T04:37:33.910Z,94.30
2019-02-23T04:40:36.115Z,95.20
2019-02-23T04:43:38.367Z,95.60
2019-02-23T04:46:40.624Z,95.60
2019-02-23T04:49:49.700Z,95.60
2019-02-23T04:52:51.928Z,94.30
2019-02-23T04:55:54.175Z,93.90
2019-02-23T04:58:56.409Z,92.90
2019-02-23T05:01:58.780Z,93.10
2019-02-23T05:05:01.041Z,93.40
2019-02-23T05:08:03.317Z,93.40
2019-02-23T05:11:05.600Z,93.40
2019-02-23T05:14:07.848Z,92.90
2019-02-23T05:17:10.144Z,92.90
2019-02-23T05:20:12.483Z,90.80
2019-02-23T05:23:14.700Z,91.40
2019-02-23T05:26:16.937Z,91.20
2019-02-23T05:29:19.193Z,91.20
2019-02-23T05:32:21.475Z,91.00
2019-02-23T05:35:23.731Z,90.80
2019-02-23T05:38:26.003Z,89.80
2019-02-23T05:41:28.235Z,90.20
2019-02-23T05:44:30.498Z,90.10
2019-02-23T05:47:32.761Z,90.60
2019-02-23T05:50:35.024Z,90.90
2019-02-23T05:53:37.263Z,90.10
2019-02-23T05:56:39.515Z,89.00
2019-02-23T05:59:41.811Z,86.70
2019-02-23T06:02:45.101Z,88.20
2019-02-23T06:05:46.423Z,86.10
2019-02-23T06:08:48.657Z,86.00
2019-02-23T06:11:50.907Z,84.50
2019-02-23T06:14:53.131Z,83.30
2019-02-23T06:17:55.389Z,83.50
2019-02-23T06:20:57.624Z,82.50
2019-02-23T06:23:59.864Z,83.40
2019-02-23T06:27:02.111Z,83.80
2019-02-23T06:30:05.669Z,82.20
2019-02-23T06:33:07.916Z,81.20
2019-02-23T06:36:10.171Z,79.80
2019-02-23T06:39:12.436Z,79.60
2019-02-23T06:42:14.704Z,79.60
2019-02-23T06:45:16.949Z,78.50
2019-02-23T06:48:33.991Z,79.60
2019-02-23T06:51:36.285Z,80.30
2019-02-23T06:54:38.567Z,81.10
2019-02-23T06:57:40.870Z,81.70
2019-02-23T07:00:43.127Z,80.80
2019-02-23T07:03:45.357Z,80.40
2019-02-23T07:09:55.492Z,79.40
2019-02-23T07:12:57.735Z,80.60
2019-02-23T07:15:59.992Z,80.10
2019-02-23T07:19:02.232Z,79.50
2019-02-23T07:22:14.825Z,81.10
2019-02-23T07:25:06.782Z,79.10
2019-02-23T07:28:10.902Z,78.20
2019-02-23T07:31:11.298Z,77.40
2019-02-23T07:34:13.535Z,78.20
2019-02-23T07:37:15.758Z,78.20
2019-02-23T07:40:17.974Z,78.30
2019-02-23T07:43:20.206Z,75.90
2019-02-23T07:46:22.423Z,74.10
2019-02-23T07:49:24.677Z,74.50
2019-02-23T07:52:26.945Z,74.60
2019-02-23T07:55:29.211Z,73.80
2019-02-23T07:58:31.403Z,73.70
2019-02-23T08:01:33.647Z,73.60
2019-02-23T08:04:35.856Z,73.60
2019-02-23T08:07:39.915Z,73.30
2019-02-23T08:10:40.405Z,73.60
2019-02-23T08:13:42.621Z,72.80
2019-02-23T08:16:44.864Z,73.40
2019-02-23T08:19:47.073Z,73.20
2019-02-23T08:22:49.315Z,72.50
2019-02-23T08:25:51.571Z,71.70
2019-02-23T08:28:53.843Z,70.80
2019-02-23T08:31:56.065Z,70.70
2019-02-23T08:34:58.267Z,69.00
2019-02-23T08:38:00.491Z,66.90
2019-02-23T08:41:02.711Z,67.20
2019-02-23T08:44:04.900Z,66.60
2019-02-23T08:47:07.143Z,65.80
2019-02-23T08:50:10.379Z,65.60
2019-02-23T08:53:12.587Z,64.60
2019-02-23T08:56:14.822Z,62.40
2019-02-23T08:59:17.084Z,60.50
2019-02-23T09:02:19.300Z,59.90
2019-02-23T09:05:21.564Z,57.30
2019-02-23T09:08:23.799Z,58.10
2019-02-23T09:11:26.075Z,56.40
2019-02-23T09:14:28.296Z,57.20
2019-02-23T09:17:30.519Z,54.90
2019-02-23T09:20:32.788Z,54.80
2019-02-23T09:23:35.078Z,55.40
2019-02-23T09:26:37.325Z,52.90
2019-02-23T09:29:39.565Z,50.60
2019-02-23T09:32:41.825Z,49.30
2019-02-23T09:35:44.065Z,47.80
2019-02-23T09:38:46.279Z,47.50
2019-02-23T09:41:48.500Z,47.90
2019-02-23T09:44:50.734Z,48.00
2019-02-23T09:47:52.955Z,48.10
2019-02-23T09:50:55.178Z,46.10
2019-02-23T09:53:57.430Z,45.20
2019-02-23T09:56:59.627Z,45.30
2019-02-23T10:00:01.911Z,46.00
2019-02-23T10:03:04.148Z,46.10
2019-02-23T10:06:06.395Z,47.30
2019-02-23T10:09:08.643Z,48.80
2019-02-23T10:12:10.869Z,50.40
2019-02-23T10:15:13.106Z,51.70
2019-02-23T10:18:15.347Z,52.60
2019-02-23T10:21:17.617Z,53.30
2019-02-23T10:24:19.823Z,54.00
2019-02-23T10:27:22.027Z,53.40
2019-02-23T10:30:24.267Z,52.20
2019-02-23T10:33:26.488Z,51.70
2019-02-23T10:36:28.702Z,50.90
2019-02-23T10:39:30.909Z,50.00
2019-02-23T10:42:33.183Z,49.80
2019-02-23T10:45:35.424Z,48.80
2019-02-23T10:48:37.667Z,48.30
2019-02-23T10:51:39.888Z,49.70
2019-02-23T10:54:42.192Z,49.70
2019-02-23T10:57:44.427Z,48.40
2019-02-23T11:00:46.666Z,49.40
2019-02-23T11:03:48.927Z,47.90
2019-02-23T11:06:51.175Z,48.20
2019-02-23T11:09:53.443Z,47.70
2019-02-23T11:12:55.647Z,47.50
2019-02-23T11:15:57.946Z,47.20
2019-02-23T11:19:00.178Z,46.30
2019-02-23T11:22:02.427Z,46.20
2019-02-23T11:25:05.021Z,47.60
2019-02-23T11:28:07.279Z,47.20
2019-02-23T11:31:09.519Z,46.90
2019-02-23T11:34:11.772Z,45.80
2019-02-23T11:37:14.004Z,47.20
2019-02-23T11:40:16.223Z,47.40
2019-02-23T11:43:18.530Z,48.50
2019-02-23T11:46:20.736Z,48.50
2019-02-23T11:49:22.949Z,47.90
2019-02-23T11:52:25.165Z,48.90
2019-02-23T11:55:27.391Z,49.40
2019-02-23T11:58:29.667Z,50.50
2019-02-23T12:01:31.896Z,50.70
2019-02-23T12:04:34.176Z,50.60
2019-02-23T12:07:36.399Z,50.00
2019-02-23T12:10:38.667Z,50.60
2019-02-23T12:13:40.906Z,50.20
2019-02-23T12:16:43.141Z,50.40
2019-02-23T12:19:45.363Z,50.40
2019-02-23T12:22:47.582Z,51.40
2019-02-23T12:25:49.795Z,50.90
2019-02-23T12:28:52.024Z,50.40
2019-02-23T12:31:54.252Z,51.40
2019-02-23T12:34:56.494Z,50.60
2019-02-23T12:37:58.759Z,49.50
2019-02-23T12:41:00.991Z,50.20
2019-02-23T12:44:03.228Z,50.10
2019-02-23T12:47:05.509Z,50.40
2019-02-23T12:50:07.891Z,49.50
2019-02-23T12:53:10.121Z,50.60
2019-02-23T12:56:12.337Z,50.40
2019-02-23T12:59:14.605Z,50.80
2019-02-23T13:02:16.926Z,50.70
2019-02-23T13:05:19.203Z,51.10
2019-02-23T13:08:21.494Z,50.80
2019-02-23T13:11:23.758Z,51.40
2019-02-23T13:16:37.771Z,52.10
2019-02-23T13:19:59.960Z,51.00
2019-02-23T13:23:12.968Z,50.20
2019-02-23T13:26:28.782Z,49.80
2019-02-23T13:31:44.519Z,50.00
2019-02-23T13:37:08.576Z,49.10
2019-02-23T13:40:28.011Z,49.90
2019-02-23T13:45:51.684Z,49.00
2019-02-23T13:49:07.172Z,49.30
2019-02-23T13:52:20.441Z,48.20
2019-02-23T13:55:51.586Z,48.00
2019-02-23T13:59:04.365Z,48.00
2019-02-23T14:02:37.366Z,47.90
2019-02-23T14:05:46.144Z,47.70
2019-02-23T14:11:04.912Z,47.90
2019-02-23T14:14:18.390Z,47.90
2019-02-23T14:18:20.780Z,48.30
2019-02-23T14:21:33.191Z,47.80
2019-02-23T14:24:50.214Z,47.60
2019-02-23T14:28:06.602Z,46.80
2019-02-23T14:31:31.479Z,47.30
2019-02-23T14:34:49.251Z,47.80
2019-02-23T14:42:06.792Z,47.40
2019-02-23T14:45:41.954Z,45.90
2019-02-23T14:49:59.533Z,46.20
2019-02-23T14:53:40.811Z,45.70
2019-02-23T14:58:59.141Z,46.10
2019-02-23T15:02:11.216Z,45.00
2019-02-23T15:05:23.021Z,44.70
2019-02-23T15:08:40.791Z,44.50
2019-02-23T15:11:58.799Z,44.40
2019-02-23T15:15:14.119Z,44.60
2019-02-23T15:18:45.243Z,44.50
2019-02-23T15:22:05.351Z,44.00
2019-02-23T15:25:20.307Z,43.20
2019-02-23T15:29:22.906Z,43.60
2019-02-23T15:31:52.337Z,43.00
2019-02-23T15:35:12.555Z,40.80
2019-02-23T15:38:25.927Z,40.30
2019-02-23T15:41:41.380Z,41.10
2019-02-23T15:44:55.899Z,40.60
2019-02-23T15:48:07.591Z,41.70
2019-02-23T15:51:09.858Z,41.60
2019-02-23T15:54:12.072Z,42.40
2019-02-23T15:57:14.323Z,42.00
2019-02-23T16:00:16.593Z,40.90
2019-02-23T16:03:18.830Z,41.60
2019-02-23T16:06:21.048Z,43.00
2019-02-23T16:09:23.275Z,43.60
2019-02-23T16:12:25.521Z,41.60
2019-02-23T16:15:27.779Z,42.50
2019-02-23T16:18:29.993Z,41.80
2019-02-23T16:21:32.301Z,40.90
2019-02-23T16:24:34.570Z,40.80
2019-02-23T16:27:36.875Z,41.50
2019-02-23T16:30:39.079Z,42.00
2019-02-23T16:33:41.356Z,42.40
2019-02-23T16:36:43.635Z,42.10
2019-02-23T16:39:45.864Z,43.10
2019-02-23T16:42:48.067Z,42.50
2019-02-23T16:45:50.287Z,44.30
2019-02-23T16:48:52.500Z,46.40
2019-02-23T16:51:54.755Z,44.90
2019-02-23T16:54:56.968Z,46.10
2019-02-23T16:57:59.189Z,44.60
2019-02-23T17:01:04.160Z,44.90
2019-02-23T17:04:03.695Z,44.90
2019-02-23T17:07:05.939Z,45.30
2019-02-23T17:10:08.196Z,44.70
2019-02-23T17:13:10.443Z,44.90
2019-02-23T17:16:12.659Z,45.90
2019-02-23T17:19:14.904Z,45.10
2019-02-23T17:22:17.127Z,45.90
2019-02-23T17:25:19.359Z,45.10
2019-02-23T17:28:21.571Z,45.70
2019-02-23T17:31:23.827Z,45.60
2019-02-23T17:34:26.087Z,46.10
2019-02-23T17:37:28.312Z,45.90
2019-02-23T17:40:30.536Z,46.00
2019-02-23T17:43:32.803Z,46.40
2019-02-23T17:46:35.027Z,46.60
2019-02-23T17:49:37.268Z,47.30
2019-02-23T17:52:39.518Z,47.20
2019-02-23T17:55:41.747Z,47.50
2019-02-23T17:58:43.982Z,47.70
2019-02-23T18:01:46.229Z,48.40
2019-02-23T18:04:48.436Z,48.60
2019-02-23T18:07:50.640Z,48.40
2019-02-23T18:10:52.858Z,48.70
2019-02-23T18:13:55.091Z,48.90
2019-02-23T18:16:57.318Z,48.50
2019-02-23T18:20:01.100Z,48.70
2019-02-23T18:23:01.803Z,48.70
2019-02-23T18:26:04.074Z,48.70
2019-02-23T18:29:07.739Z,49.60
2019-02-23T18:32:08.560Z,49.10
2019-02-23T18:35:10.785Z,48.80
2019-02-23T18:38:12.996Z,49.20
2019-02-23T18:41:15.239Z,49.40
2019-02-23T18:44:17.455Z,49.10
2019-02-23T18:47:19.739Z,48.70
2019-02-23T18:50:21.984Z,49.40
2019-02-23T18:53:24.211Z,50.00
2019-02-23T18:56:29.559Z,49.20
2019-02-23T18:59:28.646Z,48.10
2019-02-23T19:02:30.859Z,48.40
2019-02-23T19:05:33.098Z,49.00
2019-02-23T19:08:35.340Z,48.90
2019-02-23T19:11:37.555Z,46.90
2019-02-23T19:14:39.775Z,47.50
2019-02-23T19:17:41.975Z,47.80
2019-02-23T19:20:44.179Z,47.10
2019-02-23T19:23:46.395Z,47.80
2019-02-23T19:26:48.648Z,47.80
2019-02-23T19:29:50.916Z,48.30
2019-02-23T19:32:53.116Z,48.70
2019-02-23T19:35:55.336Z,48.90
2019-02-23T19:38:57.527Z,48.00
2019-02-23T19:41:59.742Z,47.80
2019-02-23T19:45:02.010Z,47.70
2019-02-23T19:48:04.240Z,47.50
2019-02-23T19:51:08.080Z,47.40
2019-02-23T19:54:10.283Z,46.70
2019-02-23T19:57:12.551Z,47.30
2019-02-23T20:00:14.787Z,47.00
2019-02-23T20:03:17.003Z,47.30
2019-02-23T20:06:19.251Z,46.70
2019-02-23T20:09:21.469Z,46.90
2019-02-23T20:12:23.716Z,47.20
2019-02-23T20:15:25.935Z,47.30
2019-02-23T20:18:28.143Z,47.00
2019-02-23T20:21:30.357Z,47.00
2019-02-23T20:24:32.587Z,46.90
2019-02-23T20:27:34.839Z,46.30
2019-02-23T20:30:37.056Z,46.30
2019-02-23T20:33:39.267Z,47.10
2019-02-23T20:36:41.499Z,47.20
2019-02-23T20:39:43.741Z,47.60
2019-02-23T20:42:45.959Z,47.30
2019-02-23T20:45:48.270Z,47.10
2019-02-23T20:48:50.491Z,46.70
2019-02-23T20:51:52.823Z,46.90
2019-02-23T20:54:55.047Z,47.20
2019-02-23T20:57:57.309Z,47.00
2019-02-23T21:00:59.546Z,47.70
2019-02-23T21:04:01.816Z,47.20
2019-02-23T21:07:04.074Z,47.30
2019-02-23T21:10:06.583Z,47.30
2019-02-23T21:13:08.863Z,47.10
2019-02-23T21:16:11.107Z,47.60
2019-02-23T21:19:13.339Z,48.00
2019-02-23T21:22:15.598Z,48.10
2019-02-23T21:25:17.837Z,48.30
2019-02-23T21:28:20.100Z,48.50
2019-02-23T21:31:22.354Z,48.10
2019-02-23T21:34:24.596Z,48.50
2019-02-23T21:37:26.832Z,48.30
2019-02-23T21:40:29.159Z,48.50
2019-02-23T21:43:31.403Z,48.80
2019-02-23T21:46:33.819Z,49.00
2019-02-23T21:49:36.041Z,49.70
2019-02-23T21:52:38.303Z,49.20
2019-02-23T21:55:40.560Z,49.00
2019-02-23T21:58:42.848Z,49.30
2019-02-23T22:01:45.128Z,50.00
2019-02-23T22:04:47.381Z,49.20
2019-02-23T22:07:49.596Z,49.90
2019-02-23T22:10:51.848Z,49.30
2019-02-23T22:13:54.171Z,49.70
2019-02-23T22:16:56.331Z,49.80
2019-02-23T22:19:58.550Z,49.50
2019-02-23T22:23:00.843Z,49.40
2019-02-23T22:26:03.150Z,50.00
2019-02-23T22:29:05.359Z,50.60
2019-02-23T22:32:07.616Z,50.90
2019-02-23T22:35:09.875Z,49.90
2019-02-23T22:38:12.116Z,50.30
2019-02-23T22:41:14.339Z,50.50
2019-02-23T22:44:16.579Z,50.90
2019-02-23T22:47:18.843Z,51.00
2019-02-23T22:50:21.060Z,51.20
2019-02-23T22:53:23.307Z,51.00
2019-02-23T22:56:25.555Z,51.00
2019-02-23T22:59:27.799Z,50.90
2019-02-23T23:02:30.075Z,51.10
2019-02-23T23:05:32.327Z,51.40
2019-02-23T23:08:34.603Z,51.60
2019-02-23T23:11:36.839Z,51.20
2019-02-23T23:14:39.180Z,51.20
2019-02-23T23:17:41.397Z,50.80
2019-02-23T23:20:43.622Z,51.20
2019-02-23T23:23:45.852Z,51.00
2019-02-23T23:26:48.060Z,51.70
2019-02-23T23:29:50.308Z,51.30
2019-02-23T23:32:52.551Z,50.50
2019-02-23T23:35:54.784Z,50.50
2019-02-23T23:38:57.064Z,50.90
2019-02-23T23:41:59.316Z,51.00
2019-02-23T23:45:01.590Z,51.20
2019-02-23T23:48:03.866Z,51.40
2019-02-23T23:51:06.087Z,51.10
2019-02-23T23:54:08.361Z,51.50
2019-02-23T23:57:10.615Z,51.40
